createdAt,value
2024-02-02T00:00:00.179Z,1.80
2024-02-02T00:02:27.103Z,1.80
2024-02-02T00:04:54.067Z,1.80
2024-02-02T00:07:21.002Z,1.80
2024-02-02T00:09:51.462Z,1.80
2024-02-02T00:12:18.491Z,1.80
2024-02-02T00:14:45.469Z,1.80
2024-02-02T00:17:12.401Z,1.80
2024-02-02T00:19:39.410Z,1.70
2024-02-02T00:22:06.593Z,1.60
2024-02-02T00:24:33.595Z,1.50
2024-02-02T00:27:00.600Z,1.50
2024-02-02T00:29:27.567Z,1.40
2024-02-02T00:31:54.386Z,1.40
2024-02-02T00:34:21.521Z,1.30
2024-02-02T00:36:48.508Z,1.30
2024-02-02T00:39:15.382Z,1.30
2024-02-02T00:41:42.345Z,1.20
2024-02-02T00:44:09.191Z,1.20
2024-02-02T00:46:36.014Z,1.20
2024-02-02T00:49:03.689Z,1.20
2024-02-02T00:51:31.311Z,1.20
2024-02-02T00:53:58.257Z,1.20
2024-02-02T00:56:25.727Z,1.20
2024-02-02T00:58:52.903Z,1.10
2024-02-02T01:01:19.908Z,1.10
2024-02-02T01:03:47.912Z,1.00
2024-02-02T01:06:14.900Z,1.00
2024-02-02T01:08:41.751Z,1.00
2024-02-02T01:11:08.812Z,0.90
2024-02-02T01:13:35.802Z,0.90
2024-02-02T01:16:02.833Z,0.80
2024-02-02T01:18:29.975Z,0.80
2024-02-02T01:20:56.978Z,0.80
2024-02-02T01:23:23.928Z,0.80
2024-02-02T01:25:50.841Z,0.80
2024-02-02T01:28:17.777Z,0.80
2024-02-02T01:30:44.641Z,0.80
2024-02-02T01:33:11.726Z,0.80
2024-02-02T01:35:38.615Z,0.80
2024-02-02T01:38:05.863Z,0.70
2024-02-02T01:40:32.738Z,0.80
2024-02-02T01:42:59.573Z,0.80
2024-02-02T01:45:27.016Z,0.70
2024-02-02T01:47:53.986Z,0.80
2024-02-02T01:50:21.013Z,0.70
2024-02-02T01:52:47.980Z,0.70
2024-02-02T01:55:15.169Z,0.70
2024-02-02T01:57:42.170Z,0.70
2024-02-02T02:00:09.675Z,0.70
2024-02-02T02:02:36.576Z,0.60
2024-02-02T02:05:04.697Z,0.70
2024-02-02T02:07:31.764Z,0.70
2024-02-02T02:09:58.676Z,0.60
2024-02-02T02:12:25.718Z,0.60
2024-02-02T02:14:52.859Z,0.60
2024-02-02T02:17:19.809Z,0.60
2024-02-02T02:19:50.246Z,0.60
2024-02-02T02:22:17.312Z,0.50
2024-02-02T02:24:44.222Z,0.50
2024-02-02T02:27:11.938Z,0.60
2024-02-02T02:29:38.970Z,0.50
2024-02-02T02:32:05.990Z,0.50
2024-02-02T02:34:33.135Z,0.50
2024-02-02T02:37:00.012Z,0.50
2024-02-02T02:39:26.998Z,0.50
2024-02-02T02:41:53.929Z,0.50
2024-02-02T02:44:21.103Z,0.50
2024-02-02T02:46:49.428Z,0.50
2024-02-02T02:49:16.744Z,0.50
2024-02-02T02:51:43.945Z,0.40
2024-02-02T02:54:10.841Z,0.40
2024-02-02T02:56:37.702Z,0.30
2024-02-02T02:59:04.649Z,0.30
2024-02-02T03:01:35.031Z,0.40
2024-02-02T03:04:02.088Z,0.40
2024-02-02T03:06:29.684Z,0.40
2024-02-02T03:09:02.653Z,0.30
2024-02-02T03:11:30.819Z,0.30
2024-02-02T03:13:58.187Z,0.30
2024-02-02T03:16:24.990Z,0.30
2024-02-02T03:18:51.932Z,0.20
2024-02-02T03:21:19.045Z,0.20
2024-02-02T03:23:46.088Z,0.20
2024-02-02T03:26:12.915Z,0.20
2024-02-02T03:28:39.873Z,0.20
2024-02-02T03:31:07.305Z,0.20
2024-02-02T03:33:34.342Z,0.10
2024-02-02T03:36:01.420Z,0.10
2024-02-02T03:38:28.351Z,0.10
2024-02-02T03:40:55.362Z,0.10
2024-02-02T03:43:22.306Z,0.00
2024-02-02T03:45:49.202Z,0.10
2024-02-02T03:48:16.134Z,0.00
2024-02-02T03:50:43.013Z,0.00
2024-02-02T03:53:09.942Z,0.10
2024-02-02T03:55:36.833Z,0.10
2024-02-02T03:58:04.239Z,0.10
2024-02-02T04:00:31.298Z,0.10
2024-02-02T04:02:58.301Z,0.00
2024-02-02T04:05:25.383Z,0.00
2024-02-02T04:07:52.286Z,0.00
2024-02-02T04:10:19.587Z,0.00
2024-02-02T04:12:46.426Z,-0.10
2024-02-02T04:15:13.344Z,0.00
2024-02-02T04:17:40.310Z,0.00
2024-02-02T04:20:08.947Z,0.00
2024-02-02T04:22:35.909Z,0.00
2024-02-02T04:25:02.836Z,0.00
2024-02-02T04:27:32.539Z,0.00
2024-02-02T04:30:00.339Z,0.00
2024-02-02T04:32:28.063Z,0.00
2024-02-02T04:34:55.074Z,-0.10
2024-02-02T04:37:22.366Z,-0.10
2024-02-02T04:39:49.181Z,-0.10
2024-02-02T04:42:16.033Z,-0.10
2024-02-02T04:44:42.932Z,-0.10
2024-02-02T04:47:09.845Z,-0.10
2024-02-02T04:49:40.187Z,-0.20
2024-02-02T04:52:07.231Z,-0.20
2024-02-02T04:54:34.184Z,-0.20
2024-02-02T04:57:01.081Z,-0.20
2024-02-02T04:59:28.307Z,-0.20
2024-02-02T05:01:55.424Z,-0.10
2024-02-02T05:04:22.374Z,-0.10
2024-02-02T05:06:49.315Z,-0.10
2024-02-02T05:09:16.158Z,-0.10
2024-02-02T05:11:43.119Z,-0.10
2024-02-02T05:14:09.903Z,-0.10
2024-02-02T05:16:36.796Z,-0.10
2024-02-02T05:19:04.029Z,-0.10
2024-02-02T05:21:31.070Z,-0.20
2024-02-02T05:24:08.293Z,-0.20
2024-02-02T05:26:45.451Z,-0.20
2024-02-02T05:29:12.428Z,-0.20
2024-02-02T05:31:39.345Z,-0.30
2024-02-02T05:34:06.624Z,-0.30
2024-02-02T05:36:41.209Z,-0.30
2024-02-02T05:39:09.631Z,-0.30
2024-02-02T05:41:36.536Z,-0.30
2024-02-02T05:44:03.404Z,-0.30
2024-02-02T05:46:30.314Z,-0.40
2024-02-02T05:48:57.449Z,-0.40
2024-02-02T05:51:26.104Z,-0.40
2024-02-02T05:53:53.189Z,-0.40
2024-02-02T05:56:22.359Z,-0.50
2024-02-02T05:58:49.950Z,-0.50
2024-02-02T06:01:17.734Z,-0.50
2024-02-02T06:03:44.911Z,-0.50
2024-02-02T06:06:11.940Z,-0.50
2024-02-02T06:08:38.937Z,-0.50
2024-02-02T06:11:05.867Z,-0.40
2024-02-02T06:13:33.923Z,-0.40
2024-02-02T06:16:00.851Z,-0.30
2024-02-02T06:18:27.793Z,-0.30
2024-02-02T06:20:54.767Z,-0.30
2024-02-02T06:23:21.899Z,-0.30
2024-02-02T06:25:48.797Z,-0.40
2024-02-02T06:28:15.867Z,-0.30
2024-02-02T06:30:49.461Z,-0.40
2024-02-02T06:33:17.894Z,-0.40
2024-02-02T06:35:45.656Z,-0.30
2024-02-02T06:38:12.691Z,-0.30
2024-02-02T06:40:39.833Z,-0.30
2024-02-02T06:43:06.729Z,-0.30
2024-02-02T06:45:34.182Z,-0.20
2024-02-02T06:48:01.262Z,-0.20
2024-02-02T06:50:28.201Z,-0.10
2024-02-02T06:52:55.104Z,-0.10
2024-02-02T06:55:22.026Z,-0.10
2024-02-02T06:57:50.318Z,-0.10
2024-02-02T07:00:17.865Z,-0.10
2024-02-02T07:02:45.103Z,0.00
2024-02-02T07:05:15.452Z,0.00
2024-02-02T07:07:42.610Z,0.00
2024-02-02T07:10:16.955Z,0.00
2024-02-02T07:12:46.620Z,0.10
2024-02-02T07:15:16.438Z,0.10
2024-02-02T07:17:43.461Z,0.20
2024-02-02T07:20:14.101Z,0.20
2024-02-02T07:22:41.722Z,0.20
2024-02-02T07:25:11.693Z,0.20
2024-02-02T07:27:56.636Z,0.30
2024-02-02T07:30:43.271Z,0.30
2024-02-02T07:33:30.561Z,0.30
2024-02-02T07:36:00.921Z,0.30
2024-02-02T07:38:47.528Z,0.40
2024-02-02T07:41:17.438Z,0.40
2024-02-02T07:43:44.799Z,0.40
2024-02-02T07:46:14.489Z,0.40
2024-02-02T07:48:43.680Z,0.50
2024-02-02T07:51:11.203Z,0.50
2024-02-02T07:53:38.234Z,0.60
2024-02-02T07:56:07.715Z,0.60
2024-02-02T07:58:34.508Z,0.70
2024-02-02T08:01:01.475Z,0.70
2024-02-02T08:03:28.577Z,0.70
2024-02-02T08:05:55.736Z,0.70
2024-02-02T08:08:22.666Z,0.70
2024-02-02T08:10:49.584Z,0.80
2024-02-02T08:13:17.460Z,0.80
2024-02-02T08:15:44.692Z,0.90
2024-02-02T08:18:12.493Z,0.90
2024-02-02T08:20:39.651Z,0.90
2024-02-02T08:23:07.365Z,1.00
2024-02-02T08:25:34.476Z,1.10
2024-02-02T08:28:02.039Z,1.20
2024-02-02T08:30:29.576Z,1.20
2024-02-02T08:32:56.837Z,1.30
2024-02-02T08:35:24.590Z,1.40
2024-02-02T08:37:52.109Z,1.40
2024-02-02T08:40:22.797Z,1.40
2024-02-02T08:42:49.680Z,1.50
2024-02-02T08:45:36.628Z,1.50
2024-02-02T08:48:06.024Z,1.60
2024-02-02T08:50:32.901Z,1.60
2024-02-02T08:52:59.935Z,1.60
2024-02-02T08:55:43.632Z,1.70
2024-02-02T08:58:11.589Z,1.80
2024-02-02T09:00:42.460Z,1.90
2024-02-02T09:03:21.460Z,2.00
2024-02-02T09:05:48.447Z,2.00
2024-02-02T09:08:18.289Z,2.10
2024-02-02T09:10:45.385Z,2.20
2024-02-02T09:13:15.852Z,2.20
2024-02-02T09:15:42.775Z,2.30
2024-02-02T09:18:15.392Z,2.30
2024-02-02T09:20:45.233Z,2.40
2024-02-02T09:23:12.492Z,2.50
2024-02-02T09:25:41.812Z,2.60
2024-02-02T09:28:41.231Z,2.60
2024-02-02T09:31:09.343Z,2.50
2024-02-02T09:33:50.732Z,2.50
2024-02-02T09:36:18.581Z,2.40
2024-02-02T09:38:58.727Z,2.40
2024-02-02T09:41:34.140Z,2.20
2024-02-02T09:44:00.932Z,2.20
2024-02-02T09:46:42.913Z,2.20
2024-02-02T09:49:09.914Z,2.30
2024-02-02T09:51:46.375Z,2.20
2024-02-02T09:54:16.394Z,2.30
2024-02-02T09:56:43.356Z,2.20
2024-02-02T09:59:15.254Z,2.20
2024-02-02T10:02:00.832Z,2.30
2024-02-02T10:04:44.879Z,2.20
2024-02-02T10:07:11.900Z,2.30
2024-02-02T10:09:38.769Z,2.30
2024-02-02T10:12:20.885Z,2.30
2024-02-02T10:14:50.835Z,2.20
2024-02-02T10:17:23.925Z,2.30
2024-02-02T10:20:11.501Z,2.20
2024-02-02T10:23:11.121Z,2.30
2024-02-02T10:25:54.796Z,2.30
2024-02-02T10:28:40.530Z,2.30
2024-02-02T10:31:07.424Z,2.40
2024-02-02T10:33:37.529Z,2.50
2024-02-02T10:36:10.740Z,2.70
2024-02-02T10:38:47.079Z,2.70
2024-02-02T10:41:13.898Z,2.80
2024-02-02T10:43:43.528Z,2.80
2024-02-02T10:46:33.650Z,2.70
2024-02-02T10:49:05.023Z,2.70
2024-02-02T10:51:52.296Z,2.60
2024-02-02T10:54:26.602Z,2.70
2024-02-02T10:57:05.461Z,2.70
2024-02-02T10:59:35.410Z,2.70
2024-02-02T11:02:19.278Z,2.70
2024-02-02T11:04:54.457Z,2.60
2024-02-02T11:07:29.946Z,2.60
2024-02-02T11:10:03.926Z,2.40
2024-02-02T11:12:37.035Z,2.60
2024-02-02T11:15:13.810Z,2.60
2024-02-02T11:17:51.327Z,2.60
2024-02-02T11:20:28.185Z,2.80
2024-02-02T11:22:59.876Z,2.80
2024-02-02T11:25:34.319Z,2.80
2024-02-02T11:28:14.766Z,2.70
2024-02-02T11:30:44.698Z,2.70
2024-02-02T11:33:33.408Z,2.70
2024-02-02T11:36:03.995Z,2.70
2024-02-02T11:38:42.965Z,2.70
2024-02-02T11:41:15.552Z,2.70
2024-02-02T11:43:43.538Z,2.90
2024-02-02T11:46:11.257Z,3.00
2024-02-02T11:48:40.545Z,3.10
2024-02-02T11:51:08.315Z,3.10
2024-02-02T11:53:36.915Z,3.00
2024-02-02T11:56:24.004Z,2.90
2024-02-02T11:58:56.510Z,3.00
2024-02-02T12:01:33.448Z,2.90
2024-02-02T12:04:13.038Z,3.00
2024-02-02T12:06:58.123Z,2.90
2024-02-02T12:09:38.847Z,2.90
2024-02-02T12:12:13.097Z,3.00
2024-02-02T12:14:49.861Z,3.00
2024-02-02T12:17:16.782Z,3.00
2024-02-02T12:19:44.424Z,3.10
2024-02-02T12:22:15.187Z,3.10
2024-02-02T12:24:42.424Z,3.10
2024-02-02T12:27:09.736Z,3.10
2024-02-02T12:29:37.560Z,3.00
2024-02-02T12:32:10.190Z,3.00
2024-02-02T12:34:37.863Z,3.00
2024-02-02T12:37:05.619Z,2.90
2024-02-02T12:39:32.970Z,2.90
2024-02-02T12:42:00.319Z,2.90
2024-02-02T12:44:27.608Z,2.90
2024-02-02T12:46:54.747Z,2.90
2024-02-02T12:49:24.616Z,2.90
2024-02-02T12:51:58.104Z,2.90
2024-02-02T12:54:25.347Z,3.00
2024-02-02T12:56:52.243Z,3.00
2024-02-02T12:59:19.866Z,3.00
2024-02-02T13:01:47.352Z,3.00
2024-02-02T13:04:14.939Z,2.90
2024-02-02T13:06:42.632Z,2.90
2024-02-02T13:09:20.369Z,2.90
2024-02-02T13:11:47.675Z,2.80
2024-02-02T13:14:14.837Z,2.80
2024-02-02T13:16:41.831Z,2.80
2024-02-02T13:19:28.763Z,2.70
2024-02-02T13:22:01.683Z,2.80
2024-02-02T13:24:28.710Z,2.80
2024-02-02T13:27:07.745Z,2.80
2024-02-02T13:29:36.060Z,2.80
2024-02-02T13:32:04.654Z,2.70
2024-02-02T13:34:32.336Z,2.70
2024-02-02T13:37:03.747Z,2.70
2024-02-02T13:39:30.815Z,2.70
2024-02-02T13:42:02.089Z,2.70
2024-02-02T13:44:29.049Z,2.70
2024-02-02T13:46:57.504Z,2.70
2024-02-02T13:49:25.032Z,2.60
2024-02-02T13:51:52.971Z,2.70
2024-02-02T13:54:20.252Z,2.60
2024-02-02T13:56:47.220Z,2.60
2024-02-02T13:59:20.310Z,2.50
2024-02-02T14:01:47.420Z,2.50
2024-02-02T14:04:23.364Z,2.50
2024-02-02T14:06:50.389Z,2.50
2024-02-02T14:09:21.568Z,2.50
2024-02-02T14:11:48.699Z,2.50
2024-02-02T14:14:15.608Z,2.50
2024-02-02T14:16:42.662Z,2.40
2024-02-02T14:19:09.941Z,2.40
2024-02-02T14:21:38.229Z,2.50
2024-02-02T14:24:05.648Z,2.40
2024-02-02T14:26:32.530Z,2.40
2024-02-02T14:29:02.537Z,2.40
2024-02-02T14:31:29.506Z,2.40
2024-02-02T14:33:57.595Z,2.20
2024-02-02T14:36:24.592Z,2.20
2024-02-02T14:38:51.593Z,2.00
2024-02-02T14:41:18.560Z,1.90
2024-02-02T14:43:45.395Z,1.90
2024-02-02T14:46:13.155Z,1.80
2024-02-02T14:48:40.248Z,1.80
2024-02-02T14:51:07.772Z,1.70
2024-02-02T14:53:35.056Z,1.60
2024-02-02T14:56:02.001Z,1.60
2024-02-02T14:58:30.012Z,1.60
2024-02-02T15:00:58.227Z,1.60
2024-02-02T15:03:25.274Z,1.70
2024-02-02T15:05:52.355Z,1.70
2024-02-02T15:08:19.403Z,1.70
2024-02-02T15:10:48.058Z,1.70
2024-02-02T15:13:19.036Z,1.70
2024-02-02T15:15:46.105Z,1.80
2024-02-02T15:18:14.074Z,1.70
2024-02-02T15:20:41.907Z,1.70
2024-02-02T15:23:09.562Z,1.70
2024-02-02T15:25:37.652Z,1.60
2024-02-02T15:28:05.431Z,1.60
2024-02-02T15:30:34.531Z,1.60
2024-02-02T15:33:03.428Z,1.50
2024-02-02T15:35:31.788Z,1.40
2024-02-02T15:37:59.615Z,1.40
2024-02-02T15:40:26.530Z,1.30
2024-02-02T15:42:53.513Z,1.20
2024-02-02T15:45:20.482Z,1.10
2024-02-02T15:47:51.607Z,1.10
2024-02-02T15:50:19.137Z,1.10
2024-02-02T15:52:47.214Z,1.10
2024-02-02T15:55:16.163Z,1.20
2024-02-02T15:57:44.268Z,1.30
2024-02-02T16:00:13.211Z,1.50
2024-02-02T16:02:44.106Z,1.50
2024-02-02T16:05:20.151Z,1.60
2024-02-02T16:07:47.291Z,1.60
2024-02-02T16:10:16.194Z,1.70
2024-02-02T16:12:47.034Z,1.70
2024-02-02T16:15:15.053Z,1.70
2024-02-02T16:17:46.151Z,1.70
2024-02-02T16:20:14.463Z,1.70
2024-02-02T16:22:43.001Z,1.70
2024-02-02T16:25:11.081Z,1.70
2024-02-02T16:27:38.865Z,1.70
2024-02-02T16:30:06.462Z,1.70
2024-02-02T16:32:34.076Z,1.70
2024-02-02T16:35:05.278Z,1.70
2024-02-02T16:37:32.321Z,1.70
2024-02-02T16:39:59.617Z,1.70
2024-02-02T16:42:26.910Z,1.70
2024-02-02T16:44:56.094Z,1.70
2024-02-02T16:47:23.601Z,1.80
2024-02-02T16:49:53.825Z,1.80
2024-02-02T16:52:23.677Z,1.70
2024-02-02T16:54:50.678Z,1.70
2024-02-02T16:57:17.666Z,1.80
2024-02-02T16:59:44.566Z,1.80
2024-02-02T17:02:11.710Z,1.80
2024-02-02T17:04:38.737Z,1.90
2024-02-02T17:07:05.879Z,1.90
2024-02-02T17:09:34.926Z,1.90
2024-02-02T17:12:04.521Z,2.00
2024-02-02T17:14:31.346Z,2.00
2024-02-02T17:16:58.199Z,2.00
2024-02-02T17:19:25.161Z,2.00
2024-02-02T17:21:52.712Z,2.10
2024-02-02T17:24:19.743Z,2.00
2024-02-02T17:26:47.746Z,2.00
2024-02-02T17:29:17.896Z,2.00
2024-02-02T17:31:46.719Z,2.00
2024-02-02T17:34:13.872Z,2.00
2024-02-02T17:36:40.783Z,2.00
2024-02-02T17:39:07.813Z,2.00
2024-02-02T17:41:35.127Z,2.00
2024-02-02T17:44:02.186Z,2.00
2024-02-02T17:46:29.181Z,1.90
2024-02-02T17:48:56.172Z,1.90
2024-02-02T17:51:23.411Z,1.90
2024-02-02T17:53:51.001Z,1.90
2024-02-02T17:56:25.409Z,1.90
2024-02-02T17:58:56.432Z,1.80
2024-02-02T18:01:24.961Z,1.80
2024-02-02T18:03:53.261Z,1.80
2024-02-02T18:06:21.230Z,1.70
2024-02-02T18:08:48.642Z,1.70
2024-02-02T18:11:16.529Z,1.60
2024-02-02T18:13:43.538Z,1.60
2024-02-02T18:16:12.616Z,1.50
2024-02-02T18:18:43.288Z,1.50
2024-02-02T18:21:10.956Z,1.50
2024-02-02T18:23:38.134Z,1.40
2024-02-02T18:26:06.913Z,1.40
2024-02-02T18:28:33.859Z,1.30
2024-02-02T18:31:01.041Z,1.30
2024-02-02T18:33:29.314Z,1.30
2024-02-02T18:35:56.533Z,1.30
2024-02-02T18:38:23.483Z,1.30
2024-02-02T18:40:51.576Z,1.20
2024-02-02T18:43:18.973Z,1.20
2024-02-02T18:45:50.582Z,1.20
2024-02-02T18:48:17.796Z,1.30
2024-02-02T18:50:44.715Z,1.20
2024-02-02T18:53:11.654Z,1.30
2024-02-02T18:55:38.591Z,1.20
2024-02-02T18:58:05.515Z,1.20
2024-02-02T19:00:33.302Z,1.20
2024-02-02T19:03:00.235Z,1.20
2024-02-02T19:05:27.215Z,1.20
2024-02-02T19:07:54.426Z,1.20
2024-02-02T19:10:21.464Z,1.20
2024-02-02T19:12:48.792Z,1.20
2024-02-02T19:15:15.815Z,1.10
2024-02-02T19:17:43.827Z,1.10
2024-02-02T19:20:11.653Z,1.20
2024-02-02T19:22:39.996Z,1.20
2024-02-02T19:25:07.245Z,1.20
2024-02-02T19:27:34.415Z,1.20
2024-02-02T19:30:01.917Z,1.30
2024-02-02T19:32:29.262Z,1.40
2024-02-02T19:34:56.303Z,1.40
2024-02-02T19:37:24.260Z,1.40
2024-02-02T19:39:51.168Z,1.50
2024-02-02T19:42:18.716Z,1.50
2024-02-02T19:44:45.980Z,1.60
2024-02-02T19:47:14.284Z,1.60
2024-02-02T19:49:41.607Z,1.60
2024-02-02T19:52:10.199Z,1.60
2024-02-02T19:54:37.279Z,1.60
2024-02-02T19:57:05.066Z,1.70
2024-02-02T19:59:32.116Z,1.70
2024-02-02T20:02:03.787Z,1.70
2024-02-02T20:04:31.082Z,1.70
2024-02-02T20:06:58.090Z,1.70
2024-02-02T20:09:25.110Z,1.70
2024-02-02T20:11:53.116Z,1.70
2024-02-02T20:14:23.977Z,1.70
2024-02-02T20:16:52.894Z,1.70
2024-02-02T20:19:39.113Z,1.70
2024-02-02T20:22:10.306Z,1.70
2024-02-02T20:24:44.533Z,1.80
2024-02-02T20:27:13.422Z,1.80
2024-02-02T20:29:41.546Z,1.80
2024-02-02T20:32:09.634Z,1.80
2024-02-02T20:34:36.651Z,1.80
2024-02-02T20:37:03.651Z,1.90
2024-02-02T20:39:36.440Z,1.80
2024-02-02T20:42:05.200Z,1.80
2024-02-02T20:44:33.332Z,1.80
2024-02-02T20:47:02.953Z,1.80
2024-02-02T20:49:30.142Z,1.90
2024-02-02T20:51:57.150Z,1.90
2024-02-02T20:54:24.124Z,1.90
2024-02-02T20:56:51.078Z,1.90
2024-02-02T20:59:18.044Z,1.90
2024-02-02T21:01:45.061Z,1.90
2024-02-02T21:04:11.975Z,1.90
2024-02-02T21:06:42.934Z,1.90
2024-02-02T21:09:11.132Z,1.90
2024-02-02T21:11:38.218Z,1.80
2024-02-02T21:14:05.043Z,1.80
2024-02-02T21:16:33.290Z,1.90
2024-02-02T21:19:02.968Z,1.80
2024-02-02T21:21:30.068Z,1.80
2024-02-02T21:23:57.019Z,1.80
2024-02-02T21:26:24.126Z,1.80
2024-02-02T21:28:50.988Z,1.90
2024-02-02T21:31:17.910Z,1.80
2024-02-02T21:33:44.972Z,1.80
2024-02-02T21:36:11.962Z,1.90
2024-02-02T21:38:39.007Z,1.80
2024-02-02T21:41:05.922Z,1.80
2024-02-02T21:43:32.863Z,1.90
2024-02-02T21:45:59.784Z,1.90
2024-02-02T21:48:26.884Z,1.90
2024-02-02T21:50:53.934Z,1.90
2024-02-02T21:53:20.977Z,1.90
2024-02-02T21:55:47.839Z,1.90
2024-02-02T21:58:15.671Z,1.80
2024-02-02T22:00:42.687Z,1.80
2024-02-02T22:03:09.573Z,1.80
2024-02-02T22:05:36.557Z,1.80
2024-02-02T22:08:03.502Z,1.80
2024-02-02T22:10:30.472Z,1.80
2024-02-02T22:12:57.454Z,1.80
2024-02-02T22:15:24.335Z,1.80
2024-02-02T22:17:51.243Z,1.80
2024-02-02T22:20:18.745Z,1.70
2024-02-02T22:22:45.740Z,1.70
2024-02-02T22:25:12.975Z,1.80
2024-02-02T22:27:39.885Z,1.70
2024-02-02T22:30:07.525Z,1.80
2024-02-02T22:32:34.566Z,1.70
2024-02-02T22:35:02.792Z,1.70
2024-02-02T22:37:29.803Z,1.70
2024-02-02T22:39:57.000Z,1.70
2024-02-02T22:42:23.907Z,1.70
2024-02-02T22:44:50.812Z,1.70
2024-02-02T22:47:17.725Z,1.70
2024-02-02T22:49:44.818Z,1.70
2024-02-02T22:52:11.672Z,1.70
2024-02-02T22:54:38.648Z,1.70
2024-02-02T22:57:05.621Z,1.70
2024-02-02T22:59:32.586Z,1.70
2024-02-02T23:01:59.547Z,1.70
2024-02-02T23:04:26.543Z,1.70
2024-02-02T23:06:53.671Z,1.70
2024-02-02T23:09:20.636Z,1.70
2024-02-02T23:11:48.442Z,1.70
2024-02-02T23:14:15.545Z,1.70
2024-02-02T23:16:42.437Z,1.70
2024-02-02T23:19:09.370Z,1.80
2024-02-02T23:21:36.709Z,1.70
2024-02-02T23:24:03.678Z,1.70
2024-02-02T23:26:30.561Z,1.80
2024-02-02T23:28:57.543Z,1.80
2024-02-02T23:31:24.409Z,1.80
2024-02-02T23:33:51.366Z,1.80
2024-02-02T23:36:19.211Z,1.80
2024-02-02T23:38:46.328Z,1.80
2024-02-02T23:41:19.764Z,1.80
2024-02-02T23:43:46.632Z,1.80
2024-02-02T23:46:13.631Z,1.80
2024-02-02T23:48:40.575Z,1.80
2024-02-02T23:51:07.762Z,1.80
2024-02-02T23:53:34.732Z,1.80
2024-02-02T23:56:01.598Z,1.80
2024-02-02T23:58:28.449Z,1.80
